createdAt,value
2022-11-01T00:00:38.388Z,14.13
2022-11-01T00:03:05.263Z,11.07
2022-11-01T00:05:38.507Z,9.85
2022-11-01T00:08:12.512Z,14.60
2022-11-01T00:10:39.399Z,16.98
2022-11-01T00:13:12.516Z,18.98
2022-11-01T00:15:46.702Z,12.93
2022-11-01T00:18:13.595Z,12.40
2022-11-01T00:20:46.484Z,11.95
2022-11-01T00:23:13.488Z,11.55
2022-11-01T00:25:46.495Z,11.13
2022-11-01T00:28:19.533Z,12.68
2022-11-01T00:30:52.527Z,9.25
2022-11-01T00:33:19.346Z,15.90
2022-11-01T00:35:46.180Z,10.35
2022-11-01T00:38:19.543Z,10.57
2022-11-01T00:40:46.397Z,8.95
2022-11-01T00:45:46.343Z,11.95
2022-11-01T00:48:20.533Z,14.73
2022-11-01T00:50:53.513Z,14.35
2022-11-01T00:53:20.519Z,7.60
2022-11-01T00:55:53.533Z,12.18
2022-11-01T00:58:20.513Z,8.98
2022-11-01T01:00:54.563Z,9.48
2022-11-01T01:03:21.473Z,8.88
2022-11-01T01:05:59.535Z,9.77
2022-11-01T01:08:26.856Z,9.63
2022-11-01T01:10:53.766Z,10.18
2022-11-01T01:13:27.530Z,9.80
2022-11-01T01:16:00.558Z,11.65
2022-11-01T01:18:34.546Z,10.05
2022-11-01T01:21:05.036Z,10.98
2022-11-01T01:23:38.590Z,12.00
2022-11-01T01:26:14.543Z,14.82
2022-11-01T01:28:43.663Z,11.20
2022-11-01T01:31:18.613Z,10.00
2022-11-01T01:33:45.474Z,10.18
2022-11-01T01:36:19.550Z,10.50
2022-11-01T01:38:52.613Z,11.80
2022-11-01T01:41:26.607Z,10.48
2022-11-01T01:43:53.490Z,9.85
2022-11-01T01:46:26.560Z,8.60
2022-11-01T01:48:57.068Z,8.98
2022-11-01T01:51:31.640Z,7.88
2022-11-01T01:53:58.586Z,9.15
2022-11-01T01:56:40.600Z,10.70
2022-11-01T01:59:10.020Z,12.95
2022-11-01T02:01:45.735Z,8.32
2022-11-01T02:04:20.788Z,11.30
2022-11-01T02:06:54.607Z,8.95
2022-11-01T02:09:21.662Z,8.05
2022-11-01T02:11:51.841Z,8.60
2022-11-01T02:14:25.674Z,23.98
2022-11-01T02:16:59.550Z,10.40
2022-11-01T02:20:06.637Z,7.57
2022-11-01T02:23:23.600Z,7.53
2022-11-01T02:26:47.492Z,11.23
2022-11-01T02:29:42.625Z,11.23
2022-11-01T02:33:13.190Z,11.63
2022-11-01T02:36:02.605Z,10.05
2022-11-01T02:38:58.575Z,11.25
2022-11-01T02:41:50.093Z,8.10
2022-11-01T02:44:26.588Z,7.82
2022-11-01T02:46:53.468Z,8.65
2022-11-01T02:49:26.621Z,9.13
2022-11-01T02:51:53.494Z,6.32
2022-11-01T02:54:29.638Z,11.68
2022-11-01T02:56:57.785Z,8.15
2022-11-01T02:59:25.974Z,11.00
2022-11-01T03:02:16.635Z,10.52
2022-11-01T03:04:43.558Z,8.70
2022-11-01T03:07:17.635Z,8.80
2022-11-01T03:09:44.527Z,12.32
2022-11-01T03:12:26.651Z,7.50
2022-11-01T03:15:07.890Z,10.32
2022-11-01T03:17:50.598Z,10.65
2022-11-01T03:20:35.500Z,8.65
2022-11-01T03:23:08.628Z,8.23
2022-11-01T03:25:40.845Z,10.43
2022-11-01T03:28:35.602Z,9.50
2022-11-01T03:31:30.642Z,10.30
2022-11-01T03:34:14.625Z,7.47
2022-11-01T03:36:47.953Z,6.75
2022-11-01T03:39:33.637Z,9.40
2022-11-01T03:42:05.798Z,8.30
2022-11-01T03:44:46.622Z,10.55
2022-11-01T03:47:13.446Z,7.65
2022-11-01T03:49:46.639Z,8.30
2022-11-01T03:52:13.508Z,9.45
2022-11-01T03:54:40.369Z,8.55
2022-11-01T03:57:13.642Z,7.10
2022-11-01T03:59:40.518Z,6.57
2022-11-01T04:02:07.492Z,12.80
2022-11-01T04:04:40.659Z,8.02
2022-11-01T04:07:07.523Z,15.05
2022-11-01T04:09:40.613Z,7.82
2022-11-01T04:12:07.478Z,8.35
2022-11-01T04:14:40.615Z,8.55
2022-11-01T04:17:15.640Z,8.65
2022-11-01T04:19:42.512Z,7.22
2022-11-01T04:22:18.199Z,9.00
2022-11-01T04:24:53.663Z,6.28
2022-11-01T04:27:20.532Z,7.82
2022-11-01T04:29:53.625Z,6.40
2022-11-01T04:32:20.453Z,6.32
2022-11-01T04:34:47.323Z,6.57
2022-11-01T04:37:20.654Z,4.35
2022-11-01T04:39:47.527Z,9.05
2022-11-01T04:42:20.615Z,4.75
2022-11-01T04:44:47.465Z,6.70
2022-11-01T04:47:20.645Z,9.13
2022-11-01T04:49:47.499Z,9.25
2022-11-01T04:52:14.385Z,7.53
2022-11-01T04:54:47.664Z,7.63
2022-11-01T04:57:21.671Z,9.10
2022-11-01T04:59:50.317Z,8.10
2022-11-01T05:02:17.838Z,6.45
2022-11-01T05:04:51.701Z,6.53
2022-11-01T05:07:18.608Z,6.07
2022-11-01T05:09:51.683Z,6.95
2022-11-01T05:12:18.531Z,5.85
2022-11-01T05:14:55.850Z,7.47
2022-11-01T05:17:23.933Z,5.35
2022-11-01T05:19:57.679Z,8.15
2022-11-01T05:22:24.548Z,7.55
2022-11-01T05:24:51.388Z,5.63
2022-11-01T05:27:24.672Z,6.88
2022-11-01T05:29:57.697Z,5.00
2022-11-01T05:32:30.693Z,9.55
2022-11-01T05:35:04.558Z,9.00
2022-11-01T05:37:37.699Z,6.97
2022-11-01T05:40:05.273Z,7.43
2022-11-01T05:42:38.691Z,5.18
2022-11-01T05:45:06.794Z,6.78
2022-11-01T05:47:39.681Z,8.07
2022-11-01T05:50:13.686Z,7.00
2022-11-01T05:52:47.687Z,8.68
2022-11-01T05:55:14.610Z,7.68
2022-11-01T06:00:20.682Z,6.38
2022-11-01T06:02:47.619Z,7.22
2022-11-01T06:05:20.694Z,9.68
2022-11-01T06:07:47.553Z,8.65
2022-11-01T06:10:20.725Z,7.95
2022-11-01T06:12:47.621Z,7.93
2022-11-01T06:15:20.733Z,6.70
2022-11-01T06:17:53.733Z,9.00
2022-11-01T06:20:20.568Z,7.65
2022-11-01T06:22:53.708Z,9.48
2022-11-01T06:25:20.564Z,8.52
2022-11-01T06:27:47.555Z,6.80
2022-11-01T06:30:20.742Z,7.45
2022-11-01T06:32:47.646Z,7.55
2022-11-01T06:35:14.569Z,7.38
2022-11-01T06:37:47.719Z,5.72
2022-11-01T06:40:14.604Z,6.78
2022-11-01T06:42:46.483Z,6.38
2022-11-01T06:45:20.723Z,8.77
2022-11-01T06:47:54.726Z,7.38
2022-11-01T06:50:21.756Z,7.13
2022-11-01T06:52:54.724Z,6.00
2022-11-01T06:55:21.629Z,6.50
2022-11-01T06:58:03.005Z,7.25
2022-11-01T07:00:30.875Z,6.97
2022-11-01T07:03:11.820Z,10.48
2022-11-01T07:05:39.088Z,8.15
2022-11-01T07:08:07.738Z,8.43
2022-11-01T07:10:42.767Z,6.22
2022-11-01T07:13:11.667Z,7.78
2022-11-01T07:15:45.780Z,7.43
2022-11-01T07:18:12.616Z,5.85
2022-11-01T07:23:15.786Z,6.22
2022-11-01T07:25:43.045Z,9.40
2022-11-01T07:28:16.745Z,6.32
2022-11-01T07:30:43.632Z,8.98
2022-11-01T07:33:16.760Z,5.93
2022-11-01T07:35:43.894Z,9.05
2022-11-01T07:38:18.074Z,26.80
2022-11-01T07:40:45.133Z,15.35
2022-11-01T07:43:11.991Z,13.23
2022-11-01T07:45:45.737Z,7.60
2022-11-01T07:48:21.807Z,7.75
2022-11-01T07:50:48.688Z,9.02
2022-11-01T07:53:17.803Z,11.57
2022-11-01T07:55:51.780Z,23.88
2022-11-01T07:58:18.673Z,29.30
2022-11-01T08:00:51.851Z,23.27
2022-11-01T08:03:25.772Z,17.90
2022-11-01T08:05:52.850Z,11.93
2022-11-01T08:08:25.780Z,13.52
2022-11-01T08:10:58.779Z,10.13
2022-11-01T08:13:25.959Z,12.55
2022-11-01T08:15:59.804Z,8.80
2022-11-01T08:18:26.961Z,10.23
2022-11-01T08:21:00.782Z,7.65
2022-11-01T08:23:27.705Z,6.20
2022-11-01T08:26:00.858Z,9.88
2022-11-01T08:28:27.791Z,11.02
2022-11-01T08:30:54.710Z,5.90
2022-11-01T08:33:27.817Z,5.88
2022-11-01T08:35:54.720Z,6.53
2022-11-01T08:38:27.822Z,10.38
2022-11-01T08:40:55.399Z,9.13
2022-11-01T08:43:28.819Z,5.93
2022-11-01T08:45:57.944Z,5.70
2022-11-01T08:48:31.821Z,6.47
2022-11-01T08:51:08.156Z,6.88
2022-11-01T08:53:35.128Z,7.47
2022-11-01T08:56:08.846Z,12.35
2022-11-01T08:58:35.859Z,8.88
2022-11-01T09:01:02.913Z,8.88
2022-11-01T09:03:36.860Z,9.18
2022-11-01T09:06:04.031Z,7.22
2022-11-01T09:08:38.000Z,11.30
2022-11-01T09:11:05.223Z,10.27
2022-11-01T09:13:39.862Z,7.95
2022-11-01T09:16:07.790Z,9.65
2022-11-01T09:18:41.905Z,9.85
2022-11-01T09:21:09.118Z,6.85
2022-11-01T09:23:42.877Z,10.20
2022-11-01T09:26:16.862Z,6.95
2022-11-01T09:28:43.779Z,6.57
2022-11-01T09:31:21.278Z,8.50
2022-11-01T09:33:54.877Z,9.32
2022-11-01T09:36:21.906Z,9.98
2022-11-01T09:38:55.834Z,9.52
2022-11-01T09:41:42.938Z,7.43
2022-11-01T09:44:24.898Z,9.68
2022-11-01T09:47:02.257Z,9.05
2022-11-01T09:49:39.889Z,10.57
2022-11-01T09:52:07.405Z,11.68
2022-11-01T09:54:40.871Z,9.63
2022-11-01T09:57:27.874Z,9.65
2022-11-01T10:00:16.878Z,8.73
2022-11-01T10:02:59.095Z,9.40
2022-11-01T10:05:51.029Z,8.57
2022-11-01T10:08:53.363Z,12.65
2022-11-01T10:11:57.944Z,10.77
2022-11-01T10:14:46.565Z,11.13
2022-11-01T10:17:26.935Z,12.32
2022-11-01T10:19:54.335Z,12.90
2022-11-01T10:22:39.928Z,18.92
2022-11-01T10:25:28.595Z,12.43
2022-11-01T10:28:28.919Z,17.80
2022-11-01T10:31:05.599Z,15.40
2022-11-01T10:33:41.923Z,11.88
2022-11-01T10:36:18.038Z,10.93
2022-11-01T10:39:53.122Z,8.88
2022-11-01T10:42:14.490Z,11.48
2022-11-01T10:44:56.913Z,13.27
2022-11-01T10:47:24.296Z,17.77
2022-11-01T10:50:34.926Z,12.57
2022-11-01T10:53:10.987Z,10.88
2022-11-01T10:55:43.199Z,11.02
2022-11-01T10:58:45.948Z,12.35
2022-11-01T11:01:16.715Z,12.07
2022-11-01T11:03:49.958Z,30.45
2022-11-01T11:06:17.024Z,29.33
2022-11-01T11:08:46.530Z,18.98
2022-11-01T11:11:22.904Z,15.23
2022-11-01T11:13:52.813Z,10.35
2022-11-01T11:17:00.969Z,13.90
2022-11-01T11:19:36.960Z,9.35
2022-11-01T11:22:06.840Z,9.00
2022-11-01T11:24:49.243Z,9.77
2022-11-01T11:27:30.806Z,13.05
2022-11-01T11:30:13.300Z,9.73
2022-11-01T11:32:56.240Z,13.93
2022-11-01T11:35:29.956Z,9.57
2022-11-01T11:38:11.950Z,13.80
2022-11-01T11:40:43.468Z,12.98
2022-11-01T11:43:35.264Z,12.70
2022-11-01T11:46:16.505Z,12.25
2022-11-01T11:49:04.033Z,11.10
2022-11-01T11:51:46.966Z,10.18
2022-11-01T11:54:32.975Z,9.65
2022-11-01T11:57:18.245Z,8.48
2022-11-01T11:59:53.003Z,10.02
2022-11-01T12:02:30.036Z,10.98
2022-11-01T12:04:59.193Z,8.98
2022-11-01T12:07:40.977Z,8.50
2022-11-01T12:10:36.773Z,8.75
2022-11-01T12:13:30.043Z,8.60
2022-11-01T12:19:08.014Z,11.77
2022-11-01T12:21:41.244Z,10.18
2022-11-01T12:24:48.989Z,12.80
2022-11-01T12:27:29.990Z,13.50
2022-11-01T12:30:08.076Z,13.05
2022-11-01T12:32:49.935Z,13.77
2022-11-01T12:35:57.736Z,14.75
2022-11-01T12:38:53.004Z,14.02
2022-11-01T12:41:51.728Z,19.73
2022-11-01T12:44:30.941Z,17.08
2022-11-01T12:47:22.046Z,13.13
2022-11-01T12:50:22.250Z,12.23
2022-11-01T12:53:10.028Z,14.07
2022-11-01T12:55:41.363Z,13.93
2022-11-01T12:58:40.972Z,11.40
2022-11-01T13:01:28.873Z,12.45
2022-11-01T13:04:31.758Z,9.40
2022-11-01T13:07:38.998Z,10.60
2022-11-01T13:10:18.526Z,12.75
2022-11-01T13:13:46.013Z,14.40
2022-11-01T13:16:13.913Z,10.02
2022-11-01T13:19:09.092Z,10.05
2022-11-01T13:21:56.483Z,9.15
2022-11-01T13:24:57.171Z,9.52
2022-11-01T13:27:35.931Z,8.18
2022-11-01T13:30:16.014Z,10.38
2022-11-01T13:33:12.044Z,14.43
2022-11-01T13:36:26.016Z,12.98
2022-11-01T13:39:35.021Z,9.18
2022-11-01T13:42:04.268Z,13.20
2022-11-01T13:44:41.095Z,15.60
2022-11-01T13:47:19.892Z,10.95
2022-11-01T13:50:12.055Z,12.25
2022-11-01T13:52:45.509Z,9.63
2022-11-01T13:55:39.096Z,13.45
2022-11-01T13:58:13.091Z,13.27
2022-11-01T14:00:57.113Z,12.48
2022-11-01T14:03:38.069Z,15.73
2022-11-01T14:06:08.076Z,10.48
2022-11-01T14:08:46.168Z,18.85
2022-11-01T14:11:33.370Z,13.35
2022-11-01T14:14:07.016Z,12.75
2022-11-01T14:16:40.096Z,11.65
2022-11-01T14:19:13.680Z,11.95
2022-11-01T14:21:52.050Z,14.90
2022-11-01T14:24:35.688Z,16.15
2022-11-01T14:27:40.113Z,11.00
2022-11-01T14:30:25.090Z,11.23
2022-11-01T14:33:01.127Z,14.75
2022-11-01T14:35:43.072Z,13.80
2022-11-01T14:38:15.205Z,13.10
2022-11-01T14:41:04.080Z,9.75
2022-11-01T14:43:35.900Z,10.93
2022-11-01T14:46:33.113Z,10.85
2022-11-01T14:49:24.139Z,10.20
2022-11-01T14:52:34.148Z,12.98
2022-11-01T14:55:23.991Z,16.15
2022-11-01T14:57:58.101Z,9.13
2022-11-01T15:00:29.508Z,8.57
2022-11-01T15:03:09.124Z,10.02
2022-11-01T15:05:56.111Z,13.07
2022-11-01T15:08:41.760Z,10.57
2022-11-01T15:11:15.105Z,14.60
2022-11-01T15:13:42.952Z,10.95
2022-11-01T15:16:21.141Z,10.38
2022-11-01T15:18:54.530Z,10.18
2022-11-01T15:21:31.418Z,11.98
2022-11-01T15:23:58.904Z,11.13
2022-11-01T15:26:37.178Z,11.43
2022-11-01T15:29:11.181Z,22.98
2022-11-01T15:31:52.087Z,15.02
2022-11-01T15:34:34.087Z,12.15
2022-11-01T15:37:22.643Z,14.15
2022-11-01T15:39:56.148Z,11.10
2022-11-01T15:42:31.104Z,13.63
2022-11-01T15:44:58.378Z,10.45
2022-11-01T15:47:33.219Z,9.93
2022-11-01T15:50:10.113Z,11.52
2022-11-01T15:52:37.073Z,10.05
2022-11-01T15:55:42.078Z,12.07
2022-11-01T15:58:16.504Z,10.73
2022-11-01T16:00:56.192Z,13.85
2022-11-01T16:03:43.193Z,12.98
2022-11-01T16:07:05.539Z,9.48
2022-11-01T16:09:54.192Z,16.27
2022-11-01T16:12:27.393Z,11.70
2022-11-01T16:15:10.159Z,16.25
2022-11-01T16:17:40.378Z,15.00
2022-11-01T16:20:43.158Z,12.27
2022-11-01T16:23:29.039Z,22.77
2022-11-01T16:26:13.209Z,22.08
2022-11-01T16:28:46.883Z,22.33
2022-11-01T16:31:31.223Z,49.92
2022-11-01T16:33:58.550Z,31.73
2022-11-01T16:37:42.476Z,14.38
2022-11-01T16:40:29.080Z,13.07
2022-11-01T16:43:02.418Z,12.30
2022-11-01T16:45:29.287Z,15.95
2022-11-01T16:48:02.610Z,24.50
2022-11-01T16:50:29.706Z,26.33
2022-11-01T16:53:03.441Z,15.43
2022-11-01T16:55:31.394Z,12.70
2022-11-01T17:01:35.977Z,16.40
2022-11-01T17:04:09.672Z,20.50
2022-11-01T17:06:42.660Z,17.95
2022-11-01T17:09:21.508Z,14.10
2022-11-01T17:11:54.715Z,15.70
2022-11-01T17:14:21.890Z,17.00
2022-11-01T17:16:50.265Z,17.50
2022-11-01T17:19:34.698Z,35.83
2022-11-01T17:22:29.663Z,55.78
2022-11-01T17:24:56.566Z,154.48
2022-11-01T17:27:29.810Z,112.70
2022-11-01T17:30:07.817Z,81.15
2022-11-01T17:32:42.853Z,78.43
2022-11-01T17:35:10.080Z,64.00
2022-11-01T17:37:36.998Z,35.75
2022-11-01T17:40:25.696Z,13.18
2022-11-01T17:42:57.178Z,10.93
2022-11-01T17:45:30.653Z,8.90
2022-11-01T17:47:57.648Z,9.63
2022-11-01T17:50:34.382Z,10.07
2022-11-01T17:53:01.772Z,13.10
2022-11-01T17:55:35.704Z,11.30
2022-11-01T17:58:03.219Z,13.60
2022-11-01T18:00:30.321Z,30.67
2022-11-01T18:03:03.680Z,29.52
2022-11-01T18:05:36.696Z,20.88
2022-11-01T18:08:16.578Z,23.55
2022-11-01T18:11:39.703Z,18.95
2022-11-01T18:14:31.710Z,17.35
2022-11-01T18:17:10.718Z,13.98
2022-11-01T18:20:49.145Z,15.00
2022-11-01T18:23:24.705Z,15.63
2022-11-01T18:25:51.838Z,12.60
2022-11-01T18:28:34.788Z,14.07
2022-11-01T18:31:22.750Z,13.68
2022-11-01T18:34:11.820Z,19.77
2022-11-01T18:37:35.835Z,13.05
2022-11-01T18:40:34.787Z,12.10
2022-11-01T18:43:02.121Z,14.00
2022-11-01T18:45:57.823Z,12.52
2022-11-01T18:48:27.265Z,11.77
2022-11-01T18:51:07.721Z,9.07
2022-11-01T18:53:34.578Z,8.15
2022-11-01T18:56:29.712Z,8.10
2022-11-01T18:58:56.569Z,11.25
2022-11-01T19:01:37.882Z,12.70
2022-11-01T19:04:22.723Z,12.77
2022-11-01T19:06:49.584Z,14.57
2022-11-01T19:09:27.718Z,14.65
2022-11-01T19:12:28.701Z,15.45
2022-11-01T19:15:30.037Z,15.63
2022-11-01T19:18:07.883Z,24.33
2022-11-01T19:20:44.062Z,21.45
2022-11-01T19:23:25.908Z,18.73
2022-11-01T19:25:52.906Z,15.45
2022-11-01T19:28:42.721Z,20.08
2022-11-01T19:31:33.091Z,20.25
2022-11-01T19:34:24.026Z,25.38
2022-11-01T19:36:50.969Z,16.52
2022-11-01T19:39:37.874Z,19.92
2022-11-01T19:42:28.613Z,14.50
2022-11-01T19:45:29.763Z,14.63
2022-11-01T19:48:04.001Z,15.52
2022-11-01T19:50:37.869Z,15.30
2022-11-01T19:53:27.724Z,12.38
2022-11-01T19:56:11.776Z,14.65
2022-11-01T19:58:56.011Z,15.52
2022-11-01T20:01:49.842Z,15.30
2022-11-01T20:04:33.826Z,10.85
2022-11-01T20:07:19.753Z,15.77
2022-11-01T20:09:58.410Z,12.40
2022-11-01T20:12:32.735Z,16.20
2022-11-01T20:14:59.576Z,20.92
2022-11-01T20:17:32.827Z,17.13
2022-11-01T20:20:06.755Z,13.82
2022-11-01T20:22:33.617Z,16.25
2022-11-01T20:25:06.729Z,21.10
2022-11-01T20:27:33.583Z,18.17
2022-11-01T20:30:08.703Z,14.23
2022-11-01T20:32:42.780Z,12.52
2022-11-01T20:35:10.304Z,12.70
2022-11-01T20:37:43.763Z,12.43
2022-11-01T20:40:11.572Z,11.73
2022-11-01T20:42:39.028Z,12.90
2022-11-01T20:45:12.837Z,15.02
2022-11-01T20:47:46.271Z,16.67
2022-11-01T20:50:20.862Z,14.13
2022-11-01T20:52:47.768Z,13.88
2022-11-01T20:55:20.774Z,15.85
2022-11-01T20:57:47.622Z,14.15
2022-11-01T21:00:14.881Z,16.48
2022-11-01T21:02:47.813Z,15.60
2022-11-01T21:05:20.834Z,17.63
2022-11-01T21:07:48.145Z,16.13
2022-11-01T21:10:40.776Z,16.63
2022-11-01T21:13:22.909Z,15.82
2022-11-01T21:15:56.867Z,12.70
2022-11-01T21:18:38.403Z,14.45
2022-11-01T21:21:21.124Z,14.40
2022-11-01T21:23:47.974Z,14.65
2022-11-01T21:26:29.803Z,14.77
2022-11-01T21:29:22.895Z,13.82
2022-11-01T21:31:55.816Z,16.10
2022-11-01T21:34:35.814Z,14.95
2022-11-01T21:37:02.716Z,13.73
2022-11-01T21:39:36.798Z,11.98
2022-11-01T21:42:04.746Z,14.82
2022-11-01T21:44:50.810Z,13.88
2022-11-01T21:47:25.115Z,14.75
2022-11-01T21:49:58.788Z,14.32
2022-11-01T21:52:25.664Z,15.00
2022-11-01T21:54:58.792Z,14.95
2022-11-01T21:57:31.832Z,16.77
2022-11-01T21:59:58.731Z,18.33
2022-11-01T22:02:31.918Z,18.08
2022-11-01T22:04:58.818Z,17.13
2022-11-01T22:07:31.850Z,18.13
2022-11-01T22:09:58.817Z,16.35
2022-11-01T22:12:25.685Z,17.05
2022-11-01T22:14:58.809Z,19.75
2022-11-01T22:17:31.857Z,16.88
2022-11-01T22:20:04.858Z,15.63
2022-11-01T22:22:37.826Z,13.48
2022-11-01T22:25:05.195Z,13.20
2022-11-01T22:27:32.076Z,15.70
2022-11-01T22:30:05.812Z,13.82
2022-11-01T22:32:32.800Z,13.50
2022-11-01T22:35:05.826Z,16.50
2022-11-01T22:37:34.761Z,13.65
2022-11-01T22:40:15.831Z,13.98
2022-11-01T22:42:45.156Z,13.35
2022-11-01T22:45:21.846Z,15.05
2022-11-01T22:47:48.703Z,13.00
2022-11-01T22:50:33.837Z,14.55
2022-11-01T22:53:00.932Z,12.70
2022-11-01T22:55:34.897Z,18.33
2022-11-01T22:58:33.803Z,13.65
2022-11-01T23:01:29.230Z,15.38
2022-11-01T23:03:58.800Z,15.15
2022-11-01T23:06:38.842Z,15.88
2022-11-01T23:09:18.672Z,19.67
2022-11-01T23:11:59.829Z,12.65
2022-11-01T23:14:27.678Z,15.48
2022-11-01T23:16:54.746Z,12.10
2022-11-01T23:19:27.960Z,14.10
2022-11-01T23:21:54.840Z,12.85
2022-11-01T23:24:21.683Z,12.82
2022-11-01T23:26:54.858Z,13.48
2022-11-01T23:29:21.787Z,11.25
2022-11-01T23:31:54.861Z,12.90
2022-11-01T23:34:21.718Z,13.20
2022-11-01T23:36:54.855Z,16.67
2022-11-01T23:39:21.856Z,11.90
2022-11-01T23:41:58.964Z,10.93
2022-11-01T23:44:43.905Z,12.45
2022-11-01T23:47:27.854Z,16.05
2022-11-01T23:50:17.886Z,17.23
2022-11-01T23:52:59.334Z,15.90
2022-11-01T23:55:59.853Z,13.57
2022-11-01T23:58:37.844Z,12.10
